Time;durP1;ratioP1;P1;durP2;ratioP2;P2;SDS_P1;SDS_P2;PMS_P1;PMS_P2;Temp;Humidity;BMP_temperature;BMP_pressure;BME280_temperature;BME280_humidity;BME280_pressure;Samples;Min_cycle;Max_cycle;Signal;HPM_P1;HPM_P2
2022/10/28 00:01:10;;;;;;;35.55;3.83;;;;;;;19.76;39.72;101457.41;4973357;28;20101;-48
2022/10/28 00:03:42;;;;;;;9.13;2.22;;;;;;;19.73;39.49;101463.38;4956459;28;20031;-48
2022/10/28 00:06:16;;;;;;;18.23;3.22;;;;;;;19.81;39.53;101453.13;4975166;28;20034;-46
2022/10/28 00:08:43;;;;;;;14.38;2.70;;;;;;;19.57;39.45;101445.19;4972207;28;20468;-46
2022/10/28 00:11:11;;;;;;;7.97;2.40;;;;;;;19.75;40.22;101450.34;4974548;28;20069;-44
2022/10/28 00:13:38;;;;;;;13.75;2.83;;;;;;;19.45;41.39;101447.22;4973211;28;20407;-44
2022/10/28 00:16:18;;;;;;;9.50;2.30;;;;;;;19.56;40.70;101456.31;4974810;28;20499;-45
2022/10/28 00:18:46;;;;;;;9.57;2.45;;;;;;;19.61;40.35;101449.09;4959560;28;20114;-44
2022/10/28 00:21:18;;;;;;;7.32;2.25;;;;;;;19.60;40.29;101457.47;4954609;29;20027;-44
2022/10/28 00:23:45;;;;;;;8.38;2.83;;;;;;;19.38;41.04;101460.16;4963247;28;20034;-44
2022/10/28 00:26:22;;;;;;;7.57;2.45;;;;;;;19.36;41.81;101456.84;4974188;28;20054;-45
2022/10/28 00:28:52;;;;;;;13.25;2.47;;;;;;;19.24;42.36;101463.19;4972637;28;20030;-46
2022/10/28 00:31:20;;;;;;;12.82;2.85;;;;;;;19.20;43.01;101470.19;4973834;28;20050;-44
2022/10/28 00:33:47;;;;;;;13.25;2.65;;;;;;;18.77;43.88;101468.16;4955426;28;20214;-46
2022/10/28 00:36:25;;;;;;;9.35;2.47;;;;;;;18.80;43.04;101459.50;4964518;28;20047;-49
2022/10/28 00:38:52;;;;;;;11.35;2.42;;;;;;;18.90;43.24;101462.38;4953518;28;20475;-46
2022/10/28 00:41:22;;;;;;;7.93;2.60;;;;;;;18.46;44.04;101464.03;4970917;28;20038;-43
2022/10/28 00:43:51;;;;;;;8.02;2.80;;;;;;;18.53;44.83;101461.97;4969033;28;20037;-44
2022/10/28 00:46:52;;;;;;;8.55;2.78;;;;;;;18.60;44.41;101459.97;4970037;28;20058;-41
2022/10/28 00:49:26;;;;;;;11.15;2.42;;;;;;;18.30;46.23;101470.22;4944522;23;20046;-49
2022/10/28 00:51:58;;;;;;;10.18;3.00;;;;;;;18.26;46.59;101466.34;4967596;28;20030;-48
2022/10/28 00:54:26;;;;;;;12.38;3.35;;;;;;;18.16;46.60;101467.00;4954185;28;20027;-49
2022/10/28 00:56:55;;;;;;;9.45;2.85;;;;;;;18.31;46.81;101471.88;4953951;28;20078;-48
2022/10/28 00:59:34;;;;;;;10.48;3.10;;;;;;;18.26;47.03;101474.47;4957671;28;20058;-48
2022/10/28 01:02:01;;;;;;;11.93;3.13;;;;;;;18.13;47.32;101470.16;4973861;28;20097;-48
2022/10/28 01:04:27;;;;;;;10.65;2.95;;;;;;;18.09;47.38;101467.09;4973746;28;20097;-50
2022/10/28 01:06:56;;;;;;;8.02;2.63;;;;;;;18.11;47.67;101462.28;4974009;28;20203;-50
2022/10/28 01:09:22;;;;;;;7.22;2.50;;;;;;;18.01;47.65;101467.50;4973741;28;20031;-51
2022/10/28 01:12:13;;;;;;;12.02;2.80;;;;;;;18.04;47.51;101461.59;4972728;28;20101;-49
2022/10/28 01:14:51;;;;;;;10.63;3.03;;;;;;;17.78;48.83;101468.38;4955035;28;20542;-50
2022/10/28 01:17:45;;;;;;;9.68;2.67;;;;;;;17.44;49.63;101474.63;4953644;28;20031;-50
2022/10/28 01:20:11;;;;;;;11.77;2.92;;;;;;;17.64;49.56;101473.19;4959636;28;20479;-51
2022/10/28 01:22:37;;;;;;;13.40;2.60;;;;;;;17.48;50.45;101479.31;4973617;28;20034;-50
2022/10/28 01:25:27;;;;;;;12.73;3.10;;;;;;;17.37;50.30;101477.44;4965440;28;20039;-49
2022/10/28 01:28:14;;;;;;;10.15;2.92;;;;;;;17.25;50.05;101476.63;4965128;28;20146;-51
2022/10/28 01:31:20;;;;;;;8.98;2.55;;;;;;;17.23;49.57;101478.75;4972469;28;20110;-48
2022/10/28 01:34:14;;;;;;;12.20;3.38;;;;;;;17.33;48.81;101481.69;4954049;29;20024;-48
2022/10/28 01:36:59;;;;;;;9.07;2.33;;;;;;;17.40;48.34;101485.91;4936888;29;20395;-46
2022/10/28 01:39:43;;;;;;;12.65;2.97;;;;;;;17.04;49.14;101483.41;4958198;28;20098;-42
2022/10/28 01:42:26;;;;;;;11.27;2.88;;;;;;;17.11;48.40;101482.28;4963742;28;20078;-43
2022/10/28 01:45:11;;;;;;;8.70;2.20;;;;;;;16.91;48.80;101479.06;4962772;28;20022;-43
2022/10/28 01:48:00;;;;;;;6.72;2.53;;;;;;;16.76;48.78;101486.78;4953740;29;20026;-43
2022/10/28 01:50:48;;;;;;;10.18;3.03;;;;;;;16.74;48.79;101486.19;4953169;29;20137;-43
2022/10/28 01:53:20;;;;;;;12.77;2.90;;;;;;;16.70;48.49;101491.19;4956418;28;20027;-47
2022/10/28 01:55:52;;;;;;;10.02;3.45;;;;;;;16.61;48.77;101500.69;4968619;28;20070;-49
2022/10/28 01:58:25;;;;;;;9.68;2.60;;;;;;;16.55;48.52;101497.03;4972750;28;20370;-52
2022/10/28 02:00:51;;;;;;;8.60;2.30;;;;;;;16.58;48.08;101501.97;4972479;28;20019;-50
2022/10/28 02:03:18;;;;;;;9.25;2.95;;;;;;;16.57;48.04;101502.22;4973589;28;20030;-46
2022/10/28 02:05:51;;;;;;;13.60;3.17;;;;;;;16.43;48.14;101511.53;4973625;28;20035;-49
2022/10/28 02:08:42;;;;;;;10.10;2.50;;;;;;;16.55;47.51;101504.31;4973146;28;20479;-48
2022/10/28 02:11:29;;;;;;;9.85;2.80;;;;;;;16.44;47.72;101519.44;4972760;28;20062;-51
2022/10/28 02:14:20;;;;;;;9.45;2.70;;;;;;;16.27;47.97;101510.31;4966164;28;20037;-50
2022/10/28 02:16:53;;;;;;;7.40;2.60;;;;;;;16.10;48.31;101516.31;4973193;28;20027;-50
2022/10/28 02:19:35;;;;;;;9.02;3.20;;;;;;;16.03;48.40;101512.84;4955065;28;20034;-51
2022/10/28 02:22:11;;;;;;;6.75;3.13;;;;;;;15.91;48.83;101511.97;4974098;28;20030;-48
2022/10/28 02:24:55;;;;;;;10.55;3.20;;;;;;;15.88;49.09;101520.53;4976506;28;20064;-51
2022/10/28 02:27:38;;;;;;;9.20;2.72;;;;;;;15.80;49.40;101521.63;4975558;28;20387;-51
2022/10/28 02:30:32;;;;;;;7.68;2.50;;;;;;;15.73;49.82;101531.69;4969963;28;20380;-50
2022/10/28 02:33:03;;;;;;;9.65;2.78;;;;;;;15.69;50.20;101532.34;4967590;28;20122;-48
2022/10/28 02:35:40;;;;;;;10.80;2.92;;;;;;;15.59;50.94;101540.91;4976528;28;20039;-49
2022/10/28 02:38:19;;;;;;;8.57;2.67;;;;;;;15.58;51.33;101545.47;4976583;28;20030;-50
2022/10/28 02:40:50;;;;;;;13.98;3.58;;;;;;;16.00;50.18;101550.31;4976547;28;20042;-49
2022/10/28 02:43:19;;;;;;;9.80;3.33;;;;;;;15.92;50.26;101554.09;4976220;28;20027;-51
2022/10/28 02:45:49;;;;;;;5.63;2.67;;;;;;;15.46;51.39;101554.53;4976363;28;20031;-49
2022/10/28 02:48:21;;;;;;;7.80;3.03;;;;;;;15.18;52.02;101563.06;4976148;28;20042;-48
2022/10/28 02:50:55;;;;;;;11.43;2.97;;;;;;;15.24;51.72;101565.69;4959256;28;20069;-49
2022/10/28 02:53:28;;;;;;;7.90;3.05;;;;;;;15.38;51.08;101576.38;4956490;28;20031;-48
2022/10/28 02:55:58;;;;;;;11.45;2.78;;;;;;;14.87;52.06;101578.19;4956560;28;20549;-51
2022/10/28 02:58:25;;;;;;;7.15;2.20;;;;;;;14.62;52.62;101582.69;4971488;28;20042;-48
2022/10/28 03:00:51;;;;;;;9.43;3.22;;;;;;;14.61;52.62;101571.09;4975669;28;20086;-52
2022/10/28 03:03:17;;;;;;;6.63;3.05;;;;;;;15.00;51.54;101575.41;4975875;28;20108;-47
2022/10/28 03:05:44;;;;;;;10.52;2.83;;;;;;;14.83;51.40;101574.28;4975245;28;20023;-47
2022/10/28 03:08:10;;;;;;;10.20;3.05;;;;;;;14.15;53.24;101572.03;4968371;28;20094;-48
2022/10/28 03:10:36;;;;;;;7.20;2.60;;;;;;;13.51;55.02;101570.09;4956023;29;20058;-49
2022/10/28 03:13:02;;;;;;;7.18;3.53;;;;;;;13.57;54.41;101571.94;4956519;29;20083;-47
2022/10/28 03:15:29;;;;;;;9.65;3.92;;;;;;;13.62;54.17;101571.31;4956095;29;20027;-47
2022/10/28 03:17:55;;;;;;;13.95;4.60;;;;;;;13.41;54.43;101573.19;4956154;29;20479;-47
2022/10/28 03:20:21;;;;;;;7.53;3.72;;;;;;;13.46;54.22;101567.19;4955935;29;20023;-49
2022/10/28 03:22:47;;;;;;;10.48;3.40;;;;;;;13.81;53.53;101575.03;4963882;28;20027;-48
2022/10/28 03:25:13;;;;;;;7.65;3.33;;;;;;;13.70;53.12;101565.72;4975427;28;20037;-47
2022/10/28 03:27:42;;;;;;;7.90;3.50;;;;;;;12.96;54.63;101564.03;4975343;28;20034;-48
2022/10/28 03:30:09;;;;;;;7.03;2.72;;;;;;;12.65;55.33;101576.13;4963366;28;20118;-50
2022/10/28 03:32:35;;;;;;;13.50;2.70;;;;;;;12.24;56.59;101583.41;4963621;28;20027;-48
2022/10/28 03:35:01;;;;;;;5.63;2.60;;;;;;;12.55;55.72;101585.63;4975076;28;20033;-51
2022/10/28 03:37:28;;;;;;;7.03;2.30;;;;;;;12.84;54.83;101587.97;4974091;28;20386;-47
2022/10/28 03:39:54;;;;;;;8.63;2.45;;;;;;;12.79;54.75;101586.91;4973379;28;20023;-49
2022/10/28 03:42:20;;;;;;;8.43;2.35;;;;;;;12.29;55.52;101595.19;4972714;28;20077;-47
2022/10/28 03:44:46;;;;;;;4.90;2.03;;;;;;;12.38;55.08;101585.94;4974847;28;20113;-47
2022/10/28 03:47:12;;;;;;;9.13;2.60;;;;;;;12.00;56.08;101595.44;4975076;28;20026;-47
2022/10/28 03:49:39;;;;;;;4.38;1.98;;;;;;;12.00;55.73;101598.97;4962074;28;20054;-51
2022/10/28 03:52:05;;;;;;;5.50;1.98;;;;;;;12.19;55.24;101596.56;4955632;29;20028;-50
2022/10/28 03:54:31;;;;;;;7.35;2.25;;;;;;;12.35;54.72;101593.56;4955342;28;20090;-48
2022/10/28 03:56:57;;;;;;;6.03;1.95;;;;;;;12.31;54.86;101601.19;4964724;28;20499;-47
2022/10/28 03:59:23;;;;;;;6.05;1.98;;;;;;;12.42;54.52;101597.09;4974478;28;20027;-47
2022/10/28 04:01:49;;;;;;;4.90;2.08;;;;;;;12.54;54.10;101608.09;4974750;28;20113;-47
2022/10/28 04:04:16;;;;;;;6.30;2.00;;;;;;;12.62;53.88;101605.25;4974638;28;20074;-48
2022/10/28 04:06:42;;;;;;;8.68;2.40;;;;;;;12.38;53.98;101604.75;4975004;28;20033;-49
2022/10/28 04:09:08;;;;;;;5.55;2.20;;;;;;;12.15;54.12;101604.19;4974783;28;20054;-48
2022/10/28 04:11:34;;;;;;;5.05;1.90;;;;;;;11.85;55.03;101604.41;4974551;28;20035;-48
2022/10/28 04:14:01;;;;;;;4.70;1.95;;;;;;;11.67;55.58;101606.75;4974303;28;20019;-47
2022/10/28 04:16:27;;;;;;;4.63;1.70;;;;;;;11.68;55.36;101611.06;4974326;28;20047;-46
2022/10/28 04:18:53;;;;;;;5.22;1.92;;;;;;;11.89;54.77;101608.38;4974196;28;20026;-47
2022/10/28 04:21:19;;;;;;;3.75;1.98;;;;;;;12.13;54.08;101607.06;4974433;28;20409;-48
2022/10/28 04:23:45;;;;;;;5.93;1.90;;;;;;;12.32;53.34;101613.56;4974104;28;20506;-47
2022/10/28 04:26:13;;;;;;;4.07;1.60;;;;;;;12.33;53.22;101604.50;4974280;28;20496;-48
2022/10/28 04:28:39;;;;;;;4.53;2.08;;;;;;;12.54;52.39;101610.78;4973901;28;20031;-49
2022/10/28 04:31:05;;;;;;;3.75;1.67;;;;;;;12.59;52.47;101609.16;4973853;28;20026;-48
2022/10/28 04:33:31;;;;;;;3.88;1.90;;;;;;;12.50;52.64;101613.06;4963558;28;20122;-50
2022/10/28 04:35:58;;;;;;;5.88;1.88;;;;;;;12.41;52.90;101612.38;4954661;28;20062;-49
2022/10/28 04:38:24;;;;;;;3.60;1.70;;;;;;;12.45;53.25;101620.88;4959530;28;20114;-49
2022/10/28 04:40:50;;;;;;;3.67;1.80;;;;;;;12.41;53.18;101619.63;4959807;28;20043;-46
2022/10/28 04:43:16;;;;;;;4.20;1.75;;;;;;;12.36;53.49;101625.56;4978851;23;20097;-47
2022/10/28 04:45:42;;;;;;;5.15;1.58;;;;;;;12.29;53.36;101621.22;4990605;28;20519;-46
2022/10/28 04:48:09;;;;;;;4.70;1.92;;;;;;;12.26;53.47;101624.28;4993345;28;20097;-48
2022/10/28 04:50:36;;;;;;;5.57;2.10;;;;;;;12.47;53.41;101620.66;4992011;28;20053;-48
2022/10/28 04:53:02;;;;;;;3.03;1.60;;;;;;;12.50;53.24;101631.84;4990803;28;20233;-48
2022/10/28 04:55:28;;;;;;;7.13;1.90;;;;;;;12.50;53.24;101623.81;4984726;28;20069;-49
2022/10/28 04:57:59;;;;;;;6.65;2.10;;;;;;;12.31;53.47;101625.34;4975385;28;20031;-47
2022/10/28 05:00:27;;;;;;;7.90;2.08;;;;;;;12.24;53.77;101635.22;4982436;28;20164;-46
2022/10/28 05:02:54;;;;;;;7.28;2.08;;;;;;;12.18;54.02;101632.50;4980943;28;20027;-46
2022/10/28 05:05:20;;;;;;;3.38;1.52;;;;;;;11.97;54.60;101633.38;4981924;28;20107;-48
2022/10/28 05:07:47;;;;;;;3.70;2.00;;;;;;;11.87;54.78;101631.88;4993154;28;20105;-45
2022/10/28 05:10:17;;;;;;;5.18;1.60;;;;;;;11.92;54.85;101633.16;4986122;28;20117;-46
2022/10/28 05:12:44;;;;;;;6.57;1.90;;;;;;;11.90;54.70;101641.41;4993087;28;20032;-48
2022/10/28 05:15:12;;;;;;;4.10;1.80;;;;;;;11.76;54.48;101639.59;4991005;28;20084;-45
2022/10/28 05:17:39;;;;;;;5.53;2.22;;;;;;;11.84;54.24;101644.84;4993217;28;20026;-45
2022/10/28 05:20:06;;;;;;;4.40;1.42;;;;;;;11.93;54.39;101642.84;4988985;28;20031;-46
2022/10/28 05:22:32;;;;;;;4.38;1.50;;;;;;;11.87;54.47;101652.50;4976981;28;20479;-46
2022/10/28 05:24:59;;;;;;;4.00;1.70;;;;;;;11.86;54.14;101649.00;4977449;28;20049;-46
2022/10/28 05:27:25;;;;;;;4.13;1.42;;;;;;;11.95;53.87;101655.06;4977525;28;20138;-46
2022/10/28 05:29:51;;;;;;;3.95;1.38;;;;;;;11.82;54.49;101655.75;4972931;28;20030;-48
2022/10/28 05:32:17;;;;;;;3.92;1.83;;;;;;;11.77;54.41;101654.66;4973332;28;20426;-46
2022/10/28 05:34:43;;;;;;;6.10;2.15;;;;;;;11.86;54.71;101656.22;4972907;28;20030;-54
2022/10/28 05:37:10;;;;;;;5.75;2.17;;;;;;;11.89;54.05;101656.66;4973034;28;20023;-49
2022/10/28 05:39:36;;;;;;;4.40;2.38;;;;;;;11.66;54.48;101656.03;4985578;28;20105;-46
2022/10/28 05:42:02;;;;;;;4.88;2.28;;;;;;;11.71;55.10;101669.66;4973050;28;20114;-47
2022/10/28 05:44:29;;;;;;;4.82;2.10;;;;;;;11.66;55.46;101671.25;4972700;28;20043;-49
2022/10/28 05:46:55;;;;;;;4.50;2.20;;;;;;;11.73;55.52;101683.72;4973229;28;20031;-47
2022/10/28 05:49:21;;;;;;;4.38;2.13;;;;;;;11.57;55.95;101687.50;4972707;28;20019;-50
2022/10/28 05:51:48;;;;;;;5.30;2.30;;;;;;;11.53;55.85;101680.84;4972983;28;20022;-50
2022/10/28 05:54:14;;;;;;;5.70;2.60;;;;;;;11.54;56.26;101679.81;4972692;28;20027;-47
2022/10/28 05:56:40;;;;;;;6.95;2.78;;;;;;;11.58;56.13;101680.28;4988232;28;20026;-46
2022/10/28 05:59:06;;;;;;;7.00;2.45;;;;;;;11.46;56.36;101689.88;4992044;28;20022;-48
2022/10/28 06:01:32;;;;;;;6.13;2.05;;;;;;;11.32;56.58;101676.31;4992164;28;20027;-50
2022/10/28 06:03:58;;;;;;;5.43;2.50;;;;;;;11.34;56.41;101682.31;4992292;28;20462;-49
2022/10/28 06:06:26;;;;;;;5.22;1.90;;;;;;;11.32;56.64;101678.16;4989750;28;20034;-46
2022/10/28 06:08:53;;;;;;;4.35;2.05;;;;;;;11.28;56.40;101676.91;4991886;28;20033;-49
2022/10/28 06:11:19;;;;;;;5.68;1.90;;;;;;;11.35;56.40;101675.94;4992129;28;20057;-48
2022/10/28 06:13:45;;;;;;;3.80;1.95;;;;;;;11.28;56.36;101680.41;4990603;28;20030;-49
2022/10/28 06:16:11;;;;;;;3.28;1.80;;;;;;;11.20;56.39;101682.38;4991479;28;20430;-46
2022/10/28 06:18:37;;;;;;;4.28;2.13;;;;;;;11.27;56.04;101683.25;4991840;28;20044;-47
2022/10/28 06:21:04;;;;;;;5.15;2.30;;;;;;;11.18;56.05;101681.72;4992165;28;20030;-46
2022/10/28 06:23:30;;;;;;;4.68;2.00;;;;;;;11.12;56.31;101682.50;4975449;28;20113;-48
2022/10/28 06:25:58;;;;;;;5.57;2.22;;;;;;;11.10;56.38;101682.66;4976470;28;20054;-48
2022/10/28 06:28:25;;;;;;;4.80;2.38;;;;;;;11.04;56.59;101683.41;4989289;28;20415;-49
2022/10/28 06:30:51;;;;;;;7.93;2.58;;;;;;;10.96;56.71;101681.69;4984990;28;20061;-46
2022/10/28 06:33:17;;;;;;;6.57;2.03;;;;;;;10.95;56.44;101687.25;4991958;28;20061;-47
2022/10/28 06:35:43;;;;;;;3.05;1.80;;;;;;;10.94;55.99;101681.06;4991912;28;20085;-49
2022/10/28 06:38:10;;;;;;;2.58;1.80;;;;;;;10.96;55.62;101688.91;4991974;28;20026;-47
2022/10/28 06:40:37;;;;;;;2.25;1.58;;;;;;;10.92;54.48;101679.56;4989860;28;20117;-47
2022/10/28 06:43:05;;;;;;;3.90;1.30;;;;;;;10.95;53.83;101684.56;4972307;28;20061;-48
2022/10/28 06:45:33;;;;;;;2.50;1.20;;;;;;;10.83;53.29;101682.38;4972456;28;20538;-46
2022/10/28 06:48:05;;;;;;;2.05;1.20;;;;;;;10.88;52.92;101687.13;4972694;28;20498;-47
2022/10/28 06:50:32;;;;;;;2.67;1.35;;;;;;;10.91;52.62;101684.09;4971873;28;20050;-46
2022/10/28 06:52:59;;;;;;;2.80;1.23;;;;;;;10.93;52.43;101691.94;4972286;28;20031;-48
2022/10/28 06:55:26;;;;;;;3.47;0.98;;;;;;;10.98;52.30;101694.88;4972188;28;20105;-50
2022/10/28 06:57:53;;;;;;;4.97;1.10;;;;;;;11.00;52.21;101691.03;4970989;28;20037;-45
2022/10/28 07:00:19;;;;;;;2.33;1.00;;;;;;;10.97;52.15;101694.06;4972022;28;20430;-47
2022/10/28 07:02:50;;;;;;;4.60;1.00;;;;;;;10.91;51.62;101700.16;4972156;28;20019;-48
2022/10/28 07:05:16;;;;;;;3.60;1.10;;;;;;;10.95;51.85;101708.66;4972402;28;20081;-45
2022/10/28 07:07:42;;;;;;;1.33;0.85;;;;;;;10.71;51.39;101705.25;4973240;28;20027;-49
2022/10/28 07:10:08;;;;;;;2.88;0.93;;;;;;;10.88;51.01;101707.75;4975952;28;20475;-49
2022/10/28 07:12:36;;;;;;;2.40;0.90;;;;;;;10.83;50.89;101694.94;4975718;28;20476;-46
2022/10/28 07:15:02;;;;;;;2.25;1.00;;;;;;;10.83;50.95;101701.13;4975543;28;20038;-46
2022/10/28 07:17:28;;;;;;;2.63;1.00;;;;;;;10.83;51.00;101697.59;4975306;28;20303;-46
2022/10/28 07:19:54;;;;;;;1.42;0.80;;;;;;;10.84;51.20;101693.91;4975281;28;20030;-46
2022/10/28 07:22:21;;;;;;;4.40;0.93;;;;;;;10.79;51.45;101697.16;4975621;28;20077;-46
2022/10/28 07:24:47;;;;;;;2.22;1.17;;;;;;;10.76;51.42;101696.66;4975704;28;20026;-46
2022/10/28 07:27:13;;;;;;;3.55;0.90;;;;;;;10.73;51.74;101695.22;4975489;28;20412;-46
2022/10/28 07:29:39;;;;;;;2.67;1.10;;;;;;;10.70;51.63;101692.91;4975065;28;20058;-45
2022/10/28 07:32:05;;;;;;;2.38;0.90;;;;;;;10.70;51.66;101692.91;4975509;28;20480;-46
2022/10/28 07:34:32;;;;;;;3.38;1.00;;;;;;;10.71;51.79;101693.72;4975143;28;20034;-45
2022/10/28 07:36:58;;;;;;;6.75;1.13;;;;;;;10.69;51.68;101693.91;4974880;28;20038;-46
2022/10/28 07:39:24;;;;;;;1.73;1.10;;;;;;;10.58;51.79;101691.69;4989171;28;20066;-46
2022/10/28 07:41:50;;;;;;;3.75;0.90;;;;;;;10.47;51.73;101698.34;4995155;28;20030;-46
2022/10/28 07:44:17;;;;;;;1.80;0.95;;;;;;;10.25;51.99;101700.09;4994720;28;20494;-44
2022/10/28 07:46:43;;;;;;;2.63;1.20;;;;;;;10.22;51.87;101689.72;4994344;28;20080;-45
2022/10/28 07:49:09;;;;;;;2.25;0.85;;;;;;;10.31;51.39;101696.66;4994132;28;20421;-44
2022/10/28 07:51:35;;;;;;;2.47;0.90;;;;;;;10.39;51.30;101692.28;4994391;28;20042;-46
2022/10/28 07:54:01;;;;;;;2.33;0.70;;;;;;;10.19;51.38;101694.59;4994361;28;20394;-45
2022/10/28 07:56:27;;;;;;;4.13;1.15;;;;;;;9.94;51.97;101694.03;4994566;28;20054;-45
2022/10/28 07:58:54;;;;;;;1.50;0.85;;;;;;;9.61;52.89;101696.13;4994035;28;20434;-47
2022/10/28 08:01:20;;;;;;;9.20;1.25;;;;;;;9.62;52.65;101695.13;4994234;28;20076;-45
2022/10/28 08:03:46;;;;;;;5.55;1.20;;;;;;;9.75;52.48;101708.69;4994241;28;20410;-46
2022/10/28 08:06:19;;;;;;;3.72;0.90;;;;;;;9.90;52.27;101703.41;4994265;28;20026;-46
2022/10/28 08:08:48;;;;;;;2.22;0.70;;;;;;;10.01;51.93;101705.66;4994004;28;20030;-46
2022/10/28 08:11:21;;;;;;;4.38;1.02;;;;;;;9.95;52.00;101720.56;4994077;28;20072;-46
2022/10/28 08:13:47;;;;;;;2.53;0.77;;;;;;;9.97;51.98;101707.00;4993988;28;20042;-45
2022/10/28 08:16:13;;;;;;;3.35;0.77;;;;;;;9.44;52.51;101716.78;4993976;28;20459;-45
2022/10/28 08:18:40;;;;;;;2.13;0.73;;;;;;;9.66;52.33;101709.75;4979676;28;20039;-46
2022/10/28 08:21:08;;;;;;;3.17;0.90;;;;;;;9.63;52.42;101708.28;4973937;28;20027;-46
2022/10/28 08:23:37;;;;;;;3.95;1.00;;;;;;;9.51;52.67;101712.41;4974447;28;20030;-48
2022/10/28 08:26:03;;;;;;;2.45;0.90;;;;;;;9.66;52.67;101715.09;4974536;28;20479;-47
2022/10/28 08:28:30;;;;;;;2.50;0.80;;;;;;;9.46;53.15;101715.59;4974255;28;20551;-49
2022/10/28 08:31:01;;;;;;;2.80;1.10;;;;;;;9.61;53.11;101713.00;4974309;28;20027;-49
2022/10/28 08:33:28;;;;;;;3.60;1.10;;;;;;;9.49;53.69;101725.94;4973977;28;20386;-45
2022/10/28 08:35:54;;;;;;;6.50;0.85;;;;;;;9.66;53.31;101732.00;4974181;28;20031;-45
2022/10/28 08:38:20;;;;;;;2.58;1.00;;;;;;;9.75;53.26;101725.56;4973753;28;20464;-46
2022/10/28 08:41:10;;;;;;;2.20;0.88;;;;;;;9.72;53.47;101731.28;4974297;28;20027;-45
2022/10/28 08:43:39;;;;;;;3.05;1.02;;;;;;;9.45;54.63;101731.81;4974246;28;20054;-48
2022/10/28 08:46:34;;;;;;;3.63;1.30;;;;;;;8.97;56.40;101736.41;4974214;28;20022;-45
2022/10/28 08:49:03;;;;;;;2.90;0.82;;;;;;;8.75;57.84;101732.63;4968302;28;20054;-45
2022/10/28 08:51:44;;;;;;;7.82;1.30;;;;;;;8.71;58.13;101732.13;4974199;28;20507;-45
2022/10/28 08:54:19;;;;;;;2.50;1.13;;;;;;;8.69;58.89;101728.81;4973888;28;20034;-46
2022/10/28 08:56:47;;;;;;;2.15;1.35;;;;;;;8.85;58.38;101729.78;4973864;28;20023;-45
2022/10/28 08:59:30;;;;;;;4.03;1.17;;;;;;;8.78;58.61;101726.13;4973377;28;20039;-46
2022/10/28 09:02:00;;;;;;;4.43;1.17;;;;;;;8.60;59.21;101729.84;4973825;28;20035;-47
2022/10/28 09:04:42;;;;;;;5.82;1.17;;;;;;;8.56;58.58;101723.19;4974305;28;20117;-46
2022/10/28 09:07:26;;;;;;;4.57;1.00;;;;;;;8.60;58.59;101724.50;4973643;28;20158;-46
2022/10/28 09:09:53;;;;;;;2.40;0.80;;;;;;;8.56;58.87;101728.53;4973720;28;20027;-46
2022/10/28 09:12:38;;;;;;;4.95;1.42;;;;;;;8.71;58.69;101725.97;4973406;28;20093;-45
2022/10/28 09:15:23;;;;;;;5.75;1.60;;;;;;;8.66;59.08;101734.53;4973601;28;20030;-47
2022/10/28 09:17:53;;;;;;;3.53;1.15;;;;;;;8.72;58.87;101733.00;4972989;28;20027;-46
2022/10/28 09:20:26;;;;;;;2.58;1.10;;;;;;;8.77;59.22;101735.97;4973367;28;20465;-45
2022/10/28 09:23:06;;;;;;;8.15;1.50;;;;;;;8.64;59.73;101747.19;4973400;28;20500;-45
2022/10/28 09:25:59;;;;;;;5.13;1.65;;;;;;;8.64;60.00;101741.84;4973572;28;20491;-45
2022/10/28 09:28:45;;;;;;;7.25;1.60;;;;;;;8.90;59.12;101746.94;4972954;28;20027;-46
2022/10/28 09:31:34;;;;;;;4.57;1.35;;;;;;;8.94;59.36;101750.09;4971757;28;20479;-45
2022/10/28 09:34:18;;;;;;;5.40;1.30;;;;;;;9.06;58.88;101751.38;4973124;28;20047;-46
2022/10/28 09:36:53;;;;;;;3.95;1.67;;;;;;;8.98;58.82;101752.22;4973255;28;20083;-46
2022/10/28 09:39:27;;;;;;;3.53;1.13;;;;;;;8.82;59.83;101740.78;4990002;28;20109;-48
2022/10/28 09:41:56;;;;;;;3.03;1.20;;;;;;;8.95;59.76;101746.44;4992513;28;20573;-46
2022/10/28 09:44:45;;;;;;;4.45;1.48;;;;;;;8.99;59.83;101750.41;4991905;28;20486;-46
2022/10/28 09:47:24;;;;;;;3.35;1.17;;;;;;;8.81;61.08;101760.47;4992438;28;20478;-45
2022/10/28 09:49:55;;;;;;;6.43;1.55;;;;;;;8.50;62.88;101758.56;4992147;28;20018;-45
2022/10/28 09:52:26;;;;;;;4.30;1.40;;;;;;;8.45;63.13;101760.91;4992204;28;20482;-45
2022/10/28 09:54:54;;;;;;;6.15;1.27;;;;;;;8.73;62.62;101756.84;4992183;28;20058;-45
2022/10/28 09:57:23;;;;;;;5.07;1.55;;;;;;;8.86;62.81;101755.47;4992492;28;20105;-46
2022/10/28 09:59:49;;;;;;;4.82;1.45;;;;;;;8.65;63.54;101759.53;4992277;28;20031;-45
2022/10/28 10:02:30;;;;;;;3.22;1.48;;;;;;;8.73;63.66;101756.84;4992116;28;20157;-45
2022/10/28 10:04:58;;;;;;;3.85;1.40;;;;;;;8.83;63.33;101763.81;4973311;28;20364;-46
2022/10/28 10:07:35;;;;;;;6.43;1.70;;;;;;;8.82;63.20;101770.16;4972482;28;20069;-45
2022/10/28 10:10:15;;;;;;;4.25;1.52;;;;;;;8.59;63.88;101760.19;4972429;28;20042;-46
2022/10/28 10:12:42;;;;;;;7.82;1.50;;;;;;;8.75;63.17;101769.19;4973032;28;20027;-45
2022/10/28 10:15:18;;;;;;;4.32;1.42;;;;;;;8.80;63.42;101761.50;4972795;28;20043;-46
2022/10/28 10:17:46;;;;;;;5.55;1.90;;;;;;;8.87;63.70;101757.94;4972387;28;20031;-45
2022/10/28 10:20:18;;;;;;;5.78;1.90;;;;;;;8.70;65.14;101765.19;4972351;28;20031;-46
2022/10/28 10:22:47;;;;;;;6.90;1.75;;;;;;;8.82;64.84;101764.81;4972918;28;20109;-46
2022/10/28 10:25:19;;;;;;;3.05;1.40;;;;;;;8.98;64.48;101760.25;4972571;28;20027;-46
2022/10/28 10:28:02;;;;;;;5.43;1.60;;;;;;;8.49;66.43;101770.22;4972743;28;20038;-45
2022/10/28 10:30:51;;;;;;;5.30;1.77;;;;;;;8.55;66.37;101772.25;4972473;28;20483;-45
2022/10/28 10:33:31;;;;;;;7.22;1.90;;;;;;;8.82;65.71;101773.66;4972624;28;20039;-45
2022/10/28 10:36:02;;;;;;;8.00;2.00;;;;;;;8.92;65.74;101773.47;4972308;28;20109;-45
2022/10/28 10:38:30;;;;;;;5.15;2.00;;;;;;;8.97;65.77;101768.44;4972348;28;20034;-45
2022/10/28 10:40:57;;;;;;;5.78;2.10;;;;;;;8.95;66.99;101768.63;4972533;28;20031;-45
2022/10/28 10:43:31;;;;;;;7.95;2.30;;;;;;;8.86;68.03;101776.81;4974283;28;20043;-46
2022/10/28 10:46:17;;;;;;;8.05;2.40;;;;;;;9.07;67.33;101776.25;4976718;28;20490;-45
2022/10/28 10:48:43;;;;;;;6.90;2.10;;;;;;;8.93;69.06;101775.13;4975860;28;20026;-45
2022/10/28 10:51:25;;;;;;;5.78;2.33;;;;;;;9.02;69.43;101770.59;4976329;28;20026;-46
2022/10/28 10:54:01;;;;;;;6.90;2.35;;;;;;;9.07;69.23;101773.59;4975744;28;20672;-45
2022/10/28 10:56:30;;;;;;;4.93;1.73;;;;;;;9.12;69.01;101768.56;4976548;28;20085;-45
2022/10/28 10:59:02;;;;;;;7.00;2.20;;;;;;;9.10;69.59;101783.91;4975612;28;20023;-47
2022/10/28 11:01:35;;;;;;;3.55;2.03;;;;;;;9.05;69.32;101779.09;4976425;28;20070;-46
2022/10/28 11:04:04;;;;;;;5.70;2.08;;;;;;;9.22;68.82;101783.38;4975789;28;20038;-45
2022/10/28 11:06:35;;;;;;;6.75;1.92;;;;;;;9.20;68.73;101777.34;4976139;28;20538;-45
2022/10/28 11:09:04;;;;;;;5.45;1.63;;;;;;;9.33;68.39;101783.97;4975538;28;20030;-45
2022/10/28 11:11:32;;;;;;;6.13;2.33;;;;;;;9.28;68.38;101786.34;4975760;28;20022;-45
2022/10/28 11:14:26;;;;;;;8.32;1.95;;;;;;;9.37;68.21;101779.94;4975657;28;20023;-45
2022/10/28 11:16:55;;;;;;;8.88;1.80;;;;;;;9.33;68.25;101781.28;4968414;28;20046;-45
2022/10/28 11:19:31;;;;;;;8.63;2.35;;;;;;;9.26;68.85;101790.00;4975411;28;20041;-46
2022/10/28 11:22:19;;;;;;;7.18;2.53;;;;;;;9.24;69.40;101786.69;4975577;28;20034;-46
2022/10/28 11:25:00;;;;;;;7.70;2.10;;;;;;;9.26;69.24;101792.69;4990415;28;20456;-45
2022/10/28 11:27:37;;;;;;;7.95;2.20;;;;;;;9.25;69.19;101783.00;4975606;28;20054;-46
2022/10/28 11:30:05;;;;;;;8.30;2.40;;;;;;;9.30;69.44;101787.00;4974075;28;20868;-49
2022/10/28 11:32:50;;;;;;;6.40;2.72;;;;;;;9.30;70.18;101787.00;4975481;28;20034;-46
2022/10/28 11:35:39;;;;;;;5.97;2.45;;;;;;;9.31;69.90;101792.16;4976211;28;20037;-45
2022/10/28 11:38:50;;;;;;;6.95;2.60;;;;;;;9.28;70.09;101789.03;4994300;28;20034;-45
2022/10/28 11:41:42;;;;;;;6.93;2.85;;;;;;;9.36;70.66;101786.31;4910869;29;20029;-45
2022/10/28 11:44:43;;;;;;;7.32;2.38;;;;;;;9.33;70.56;101781.28;4971403;28;20047;-46
2022/10/28 11:47:20;;;;;;;7.80;2.42;;;;;;;9.37;70.39;101793.31;4963806;28;20046;-46